地図

経路データ

SID SEASON NUMBER BASIN SUBBASIN NAME ISO_TIME NATURE LAT LON WMO_WIND WMO_PRES WMO_AGENCY TRACK_TYPE DIST2LAND LANDFALL IFLAG USA_AGENCY USA_ATCF_ID USA_LAT USA_LON USA_RECORD USA_STATUS USA_WIND USA_PRES USA_SSHS USA_R34_NE USA_R34_SE USA_R34_SW USA_R34_NW USA_R50_NE USA_R50_SE USA_R50_SW USA_R50_NW USA_R64_NE USA_R64_SE USA_R64_SW USA_R64_NW USA_POCI USA_ROCI USA_RMW USA_EYE TOKYO_LAT TOKYO_LON TOKYO_GRADE TOKYO_WIND TOKYO_PRES TOKYO_R50_DIR TOKYO_R50_LONG TOKYO_R50_SHORT TOKYO_R30_DIR TOKYO_R30_LONG TOKYO_R30_SHORT TOKYO_LAND CMA_LAT CMA_LON CMA_CAT CMA_WIND CMA_PRES HKO_LAT HKO_LON HKO_CAT HKO_WIND HKO_PRES NEWDELHI_LAT NEWDELHI_LON NEWDELHI_GRADE NEWDELHI_WIND NEWDELHI_PRES NEWDELHI_CI NEWDELHI_DP NEWDELHI_POCI REUNION_LAT REUNION_LON REUNION_TYPE REUNION_WIND REUNION_PRES REUNION_TNUM REUNION_CI REUNION_RMW REUNION_R34_NE REUNION_R34_SE REUNION_R34_SW REUNION_R34_NW REUNION_R50_NE REUNION_R50_SE REUNION_R50_SW REUNION_R50_NW REUNION_R64_NE REUNION_R64_SE REUNION_R64_SW REUNION_R64_NW BOM_LAT BOM_LON BOM_TYPE BOM_WIND BOM_PRES BOM_TNUM BOM_CI BOM_RMW BOM_R34_NE BOM_R34_SE BOM_R34_SW BOM_R34_NW BOM_R50_NE BOM_R50_SE BOM_R50_SW BOM_R50_NW BOM_R64_NE BOM_R64_SE BOM_R64_SW BOM_R64_NW BOM_ROCI BOM_POCI BOM_EYE BOM_POS_METHOD BOM_PRES_METHOD NADI_LAT NADI_LON NADI_CAT NADI_WIND NADI_PRES WELLINGTON_LAT WELLINGTON_LON WELLINGTON_WIND WELLINGTON_PRES DS824_LAT DS824_LON DS824_STAGE DS824_WIND DS824_PRES TD9636_LAT TD9636_LON TD9636_STAGE TD9636_WIND TD9636_PRES TD9635_LAT TD9635_LON TD9635_WIND TD9635_PRES TD9635_ROCI NEUMANN_LAT NEUMANN_LON NEUMANN_CLASS NEUMANN_WIND NEUMANN_PRES MLC_LAT MLC_LON MLC_CLASS MLC_WIND MLC_PRES USA_GUST BOM_GUST BOM_GUST_PER REUNION_GUST REUNION_GUST_PER USA_SEAHGT USA_SEARAD_NE USA_SEARAD_SE USA_SEARAD_SW USA_SEARAD_NW STORM_SPEED STORM_DIR
1972131S07151 1972 35 SP EA NOT_NAMED 1972-05-09 14:00:00 TS -6.72727 150.949 spur-other 70 70 ______________ -1 24 87
1972131S07151 1972 35 SP EA NOT_NAMED 1972-05-09 15:00:00 TS -6.70606 151.353 spur-other 85 85 ______________ -1 26 88
1972131S07151 1972 35 SP EA NOT_NAMED 1972-05-09 17:00:00 TS -6.68640 152.248 spur-other 130 130 ______________ -1 26 89
1972131S07151 1972 35 SP EA NOT_NAMED 1972-05-09 18:00:00 TS -6.68973 152.681 spur-other 158 158 O________O____ jtwc_sh SH301972 -6.70000 152.700 10 -1 -6.70000 152.700 TC 10 23 91
1972131S07151 1972 35 SP EA NOT_NAMED 1972-05-09 20:00:00 TS -6.71166 153.428 spur-other 169 142 P________P____ SH301972 -6.73579 153.409 10 -1 -6.73579 153.409 TC 10 21 93
1972131S07151 1972 35 SP EA NOT_NAMED 1972-05-09 21:00:00 TS -6.73764 153.761 spur-other 133 102 P________P____ SH301972 -6.76072 153.730 10 -1 -6.76072 153.730 TC 10 17 97
1972131S07151 1972 35 SP EA NOT_NAMED 1972-05-09 23:00:00 TS -6.82397 154.292 spur-other 102 94 P________PO___ SH301972 -6.83977 154.239 10 -1 -6.83977 154.239 TC 10 -6.80000 154.400 4 14 103
1972131S07151 1972 35 SP EA NOT_NAMED 1972-05-10 00:00:00 TS -6.88762 154.441 spur-other 99 86 O________OP___ jtwc_sh SH301972 -6.90000 154.400 10 -1 -6.90000 154.400 TC 10 -6.90672 154.350 4 6 143
1972131S07151 1972 35 SP EA NOT_NAMED 1972-05-10 03:00:00 TS -7.15318 154.541 spur-other 110 110 P________PP___ SH301972 -7.16976 154.485 10 -1 -7.16976 154.485 TC 10 -7.22407 154.216 4 6 185
1972131S07151 1972 35 SP EA NOT_NAMED 1972-05-10 06:00:00 TS -7.48109 154.379 spur-other 141 141 O________OP___ jtwc_sh SH301972 -7.50000 154.300 10 -1 -7.50000 154.300 TC 10 -7.53126 154.130 4 7 203
1972131S07151 1972 35 SP EA NOT_NAMED 1972-05-10 09:00:00 TS -7.80506 154.265 spur-other 173 173 P________PP___ SH301972 -7.81500 154.235 12 -1 -7.81500 154.235 TC 12 -7.82069 154.132 4 7 198
1972131S07151 1972 35 SP EA NOT_NAMED 1972-05-10 11:00:00 TS -8.00761 154.204 spur-other 196 196 P________PO___ SH301972 -8.01142 154.205 14 -1 -8.01142 154.205 TC 14 -8.00000 154.200 4 6 189
1972131S07151 1972 35 SP EA NOT_NAMED 1972-05-10 12:00:00 TS -8.09494 154.219 spur-other 204 204 O________OP___ jtwc_sh SH301972 -8.10000 154.200 15 -1 -8.10000 154.200 TC 15 -8.08482 154.257 4 5 160
1972131S07151 1972 35 SP EA NOT_NAMED 1972-05-10 15:00:00 TS -8.31251 154.319 spur-other 213 213 P________PP___ SH301972 -8.30750 154.242 15 -1 -8.30750 154.242 TC 15 -8.32253 154.473 4 5 155
1972131S07151 1972 35 SP EA NOT_NAMED 1972-05-10 18:00:00 TS -8.51433 154.413 spur-other 225 225 O________OP___ jtwc_sh SH301972 -8.50000 154.300 15 -1 -8.50000 154.300 TC 15 -8.54300 154.639 4 5 154
1972131S07151 1972 35 SP EA NOT_NAMED 1972-05-10 21:00:00 TS -8.75169 154.537 spur-other 249 249 P________PP___ SH301972 -8.74928 154.502 15 -1 -8.74928 154.502 TC 15 -8.75650 154.606 4 5 0
1972131S07151 1972 35 SP EA NOT_NAMED 1972-05-10 23:00:00 TS -8.91280 154.434 spur-other 264 264 P________PO___ SH301972 -8.91921 154.451 15 -1 -8.91921 154.451 TC 15 -8.90000 154.400 4 8 230
1972131S07151 1972 35 SP EA NOT_NAMED 1972-05-11 00:00:00 TS -8.99215 154.246 spur-other 285 285 O________OP___ jtwc_sh SH301972 -9.00000 154.300 15 -1 -9.00000 154.300 TC 15 -8.97308 154.226 4 20 258
1972131S07151 1972 35 SP EA NOT_NAMED 1972-05-11 03:00:00 TS -9.20295 153.103 spur-other 290 157 P________PP___ SH301972 -9.21473 153.258 15 -1 -9.21473 153.258 TC 15 -9.19702 153.447 4 25 260
1972131S07151 1972 35 SP EA NOT_NAMED 1972-05-11 06:00:00 TS -9.41043 151.751 spur-other 157 70 O________OP___ jtwc_sh SH301972 -9.40000 151.700 15 -1 -9.40000 151.700 TC 15 -9.42449 152.366 4 24 259
1972131S07151 1972 35 SP EA NOT_NAMED 1972-05-11 09:00:00 TS -9.65078 150.729 spur-other 57 24 __________P___ SH301972 -1 TC -9.65111 151.096 4 18 255
1972131S07151 1972 35 SP EA NOT_NAMED 1972-05-11 11:00:00 TS -9.81307 150.275 spur-other 24 __________O___ SH301972 -1 TC -9.80000 150.200 4 14 250

デジタル台風データ・検索

IBTrACS Databaseについて

本データベースは、米国NOAAが公開する1842年以降の世界の熱帯低気圧のベストトラックデータアーカイブInternational Best Track Archive for Climate Stewardship (IBTrACS)を、ウェブで閲覧しやすい形式に変換したものです。

最終更新日:2021-10-08